Saint Petersburg, Florida
Current Conditions -  °F | °C
As of 12:53 AM on Friday 28 Nov 2014 (Local Time) from KSPG Reporting Station
Clear Clear  
Wind Chill: 55°   Ceiling: Unl
Heat Index: 55°   Visibility: 10mi
Dew Point: 40°   Wind: 18mph
Humidity: 57%   Direction: 20°NNE
Pressure: 30.28"   Gusts: NA
Location:  27.77°N, 82.63°W
Report Text: KSPG 280553Z AUTO 02016KT 10SM CLR 13/04 A3028 RMK AO2 SLP255 T01280044 10144 20128 51004
Loading
Personal Weather Stations






























Interactive Weather Map New forecast layout! Learn more

10-Day Weather Forecast

Advertisements
Track Severe Weather on mobile